Wautoma, Wisconsin
Current Conditions -  °F | °C
As of 4:56 AM on Monday 20 Oct 2014 (Local Time) from KY50 Reporting Station
Clear Clear  
Wind Chill: 36°   Ceiling: Unl
Heat Index: 36°   Visibility: 10mi
Dew Point: 35°   Wind: 0mph
Humidity: 96%   Direction: NA
Pressure: 29.8"   Gusts: NA
Location:  44.07°N, 89.29°W
Report Text: KY50 200956Z AUTO 00000KT 10SM CLR 02/02 A2980 RMK AO2 TSNO T00220016 SLP090
Loading
Personal Weather Stations






























Interactive Weather Map
Tropical Storm Tracking
New forecast layout! Learn more

10-Day Weather Forecast

Advertisements
Track Severe Weather on mobile